sensor_id;sensor_type;location;lat;lon;timestamp;temperature;humidity
1355;DHT22;671;48.972;9.276;2023-04-01T00:01:03;10.10;1.00
1355;DHT22;671;48.972;9.276;2023-04-01T00:03:30;10.00;1.00
1355;DHT22;671;48.972;9.276;2023-04-01T00:05:59;10.00;1.00
1355;DHT22;671;48.972;9.276;2023-04-01T00:08:27;10.00;1.00
1355;DHT22;671;48.972;9.276;2023-04-01T00:10:54;10.00;1.00
1355;DHT22;671;48.972;9.276;2023-04-01T00:13:21;10.00;1.00
1355;DHT22;671;48.972;9.276;2023-04-01T00:15:47;10.00;1.00
1355;DHT22;671;48.972;9.276;2023-04-01T00:18:15;10.00;1.00
1355;DHT22;671;48.972;9.276;2023-04-01T00:20:46;10.00;1.00
1355;DHT22;671;48.972;9.276;2023-04-01T00:23:14;10.10;1.00
1355;DHT22;671;48.972;9.276;2023-04-01T00:25:41;10.00;1.00
1355;DHT22;671;48.972;9.276;2023-04-01T00:28:08;10.00;1.00
1355;DHT22;671;48.972;9.276;2023-04-01T00:30:36;10.00;1.00
1355;DHT22;671;48.972;9.276;2023-04-01T00:33:03;10.00;1.00
1355;DHT22;671;48.972;9.276;2023-04-01T00:35:30;10.00;1.00
1355;DHT22;671;48.972;9.276;2023-04-01T00:37:58;10.00;1.00
1355;DHT22;671;48.972;9.276;2023-04-01T00:40:46;10.10;1.00
1355;DHT22;671;48.972;9.276;2023-04-01T00:43:18;10.10;1.00
1355;DHT22;671;48.972;9.276;2023-04-01T00:45:47;10.10;1.00
1355;DHT22;671;48.972;9.276;2023-04-01T00:50:53;10.00;1.00
1355;DHT22;671;48.972;9.276;2023-04-01T00:53:21;10.00;1.00
1355;DHT22;671;48.972;9.276;2023-04-01T00:56:01;10.10;1.00
1355;DHT22;671;48.972;9.276;2023-04-01T00:58:32;10.00;1.00
1355;DHT22;671;48.972;9.276;2023-04-01T01:00:59;10.00;1.00
1355;DHT22;671;48.972;9.276;2023-04-01T01:03:28;10.00;1.00
1355;DHT22;671;48.972;9.276;2023-04-01T01:11:31;10.00;1.00
1355;DHT22;671;48.972;9.276;2023-04-01T01:14:12;10.10;1.00
1355;DHT22;671;48.972;9.276;2023-04-01T01:16:46;10.10;1.00
1355;DHT22;671;48.972;9.276;2023-04-01T01:22:52;10.10;1.00
1355;DHT22;671;48.972;9.276;2023-04-01T01:25:52;10.20;1.00
1355;DHT22;671;48.972;9.276;2023-04-01T01:28:36;10.20;1.00
1355;DHT22;671;48.972;9.276;2023-04-01T01:37:12;10.30;1.00
1355;DHT22;671;48.972;9.276;2023-04-01T01:39:41;10.30;1.00
1355;DHT22;671;48.972;9.276;2023-04-01T01:42:11;10.30;1.00
1355;DHT22;671;48.972;9.276;2023-04-01T01:44:41;10.40;1.00
1355;DHT22;671;48.972;9.276;2023-04-01T01:47:10;10.40;1.00
1355;DHT22;671;48.972;9.276;2023-04-01T01:49:38;10.40;1.00
1355;DHT22;671;48.972;9.276;2023-04-01T01:52:05;10.40;1.00
1355;DHT22;671;48.972;9.276;2023-04-01T01:54:32;10.40;1.00
1355;DHT22;671;48.972;9.276;2023-04-01T01:57:06;10.40;1.00
1355;DHT22;671;48.972;9.276;2023-04-01T01:59:35;10.40;1.00
1355;DHT22;671;48.972;9.276;2023-04-01T02:02:05;10.40;1.00
1355;DHT22;671;48.972;9.276;2023-04-01T02:04:39;10.40;1.00
1355;DHT22;671;48.972;9.276;2023-04-01T02:07:28;10.40;1.00
1355;DHT22;671;48.972;9.276;2023-04-01T02:09:56;10.50;1.00
1355;DHT22;671;48.972;9.276;2023-04-01T02:12:24;10.40;1.00
1355;DHT22;671;48.972;9.276;2023-04-01T02:15:03;10.40;1.00
1355;DHT22;671;48.972;9.276;2023-04-01T02:17:32;10.40;1.00
1355;DHT22;671;48.972;9.276;2023-04-01T02:20:04;10.40;1.00
1355;DHT22;671;48.972;9.276;2023-04-01T02:22:52;10.40;1.00
1355;DHT22;671;48.972;9.276;2023-04-01T02:25:24;10.40;1.00
1355;DHT22;671;48.972;9.276;2023-04-01T02:27:53;10.40;1.00
1355;DHT22;671;48.972;9.276;2023-04-01T02:30:21;10.30;1.00
1355;DHT22;671;48.972;9.276;2023-04-01T02:32:49;10.30;1.00
1355;DHT22;671;48.972;9.276;2023-04-01T02:35:16;10.30;1.00
1355;DHT22;671;48.972;9.276;2023-04-01T02:37:45;10.20;1.00
1355;DHT22;671;48.972;9.276;2023-04-01T02:40:14;10.30;1.00
1355;DHT22;671;48.972;9.276;2023-04-01T02:42:41;10.20;1.00
1355;DHT22;671;48.972;9.276;2023-04-01T02:45:08;10.20;1.00
1355;DHT22;671;48.972;9.276;2023-04-01T02:47:35;10.20;1.00
1355;DHT22;671;48.972;9.276;2023-04-01T02:50:01;10.10;1.00
1355;DHT22;671;48.972;9.276;2023-04-01T02:52:29;10.20;1.00
1355;DHT22;671;48.972;9.276;2023-04-01T02:54:56;10.20;1.00
1355;DHT22;671;48.972;9.276;2023-04-01T02:57:24;10.10;1.00
1355;DHT22;671;48.972;9.276;2023-04-01T02:59:50;10.10;1.00
1355;DHT22;671;48.972;9.276;2023-04-01T03:02:17;10.10;1.00
1355;DHT22;671;48.972;9.276;2023-04-01T03:04:43;10.10;1.00
1355;DHT22;671;48.972;9.276;2023-04-01T03:07:10;10.20;1.00
1355;DHT22;671;48.972;9.276;2023-04-01T03:09:37;10.20;1.00
1355;DHT22;671;48.972;9.276;2023-04-01T03:12:04;10.20;1.00
1355;DHT22;671;48.972;9.276;2023-04-01T03:14:31;10.10;1.00
1355;DHT22;671;48.972;9.276;2023-04-01T03:16:57;10.20;1.00
1355;DHT22;671;48.972;9.276;2023-04-01T03:19:24;10.20;1.00
1355;DHT22;671;48.972;9.276;2023-04-01T03:21:50;10.10;1.00
1355;DHT22;671;48.972;9.276;2023-04-01T03:24:16;10.10;1.00
1355;DHT22;671;48.972;9.276;2023-04-01T03:26:43;10.10;1.00
1355;DHT22;671;48.972;9.276;2023-04-01T03:29:10;10.10;1.00
1355;DHT22;671;48.972;9.276;2023-04-01T03:31:36;10.10;1.00
1355;DHT22;671;48.972;9.276;2023-04-01T03:34:03;10.10;1.00
1355;DHT22;671;48.972;9.276;2023-04-01T03:36:29;10.10;1.00
1355;DHT22;671;48.972;9.276;2023-04-01T03:38:56;10.10;1.00
1355;DHT22;671;48.972;9.276;2023-04-01T03:41:22;10.00;1.00
1355;DHT22;671;48.972;9.276;2023-04-01T03:43:48;10.00;1.00
1355;DHT22;671;48.972;9.276;2023-04-01T03:46:19;9.90;1.00
1355;DHT22;671;48.972;9.276;2023-04-01T03:48:46;9.80;1.00
1355;DHT22;671;48.972;9.276;2023-04-01T03:51:12;9.80;1.00
1355;DHT22;671;48.972;9.276;2023-04-01T03:53:39;9.80;1.00
1355;DHT22;671;48.972;9.276;2023-04-01T03:56:07;9.80;1.00
1355;DHT22;671;48.972;9.276;2023-04-01T03:58:35;9.70;1.00
1355;DHT22;671;48.972;9.276;2023-04-01T04:01:02;9.70;1.00
1355;DHT22;671;48.972;9.276;2023-04-01T04:03:28;9.60;1.00
1355;DHT22;671;48.972;9.276;2023-04-01T04:05:55;9.70;1.00
1355;DHT22;671;48.972;9.276;2023-04-01T04:08:22;9.70;1.00
1355;DHT22;671;48.972;9.276;2023-04-01T04:10:55;9.70;1.00
1355;DHT22;671;48.972;9.276;2023-04-01T04:13:22;9.60;1.00
1355;DHT22;671;48.972;9.276;2023-04-01T04:15:48;9.60;1.00
1355;DHT22;671;48.972;9.276;2023-04-01T04:18:14;9.60;1.00
1355;DHT22;671;48.972;9.276;2023-04-01T04:20:45;9.70;1.00
1355;DHT22;671;48.972;9.276;2023-04-01T04:23:14;9.60;1.00
1355;DHT22;671;48.972;9.276;2023-04-01T04:25:41;9.70;1.00
1355;DHT22;671;48.972;9.276;2023-04-01T04:28:07;9.70;1.00
1355;DHT22;671;48.972;9.276;2023-04-01T04:30:34;9.70;1.00
1355;DHT22;671;48.972;9.276;2023-04-01T04:33:00;9.70;1.00
1355;DHT22;671;48.972;9.276;2023-04-01T04:35:26;9.70;1.00
1355;DHT22;671;48.972;9.276;2023-04-01T04:37:53;9.70;1.00
1355;DHT22;671;48.972;9.276;2023-04-01T04:40:19;9.70;1.00
1355;DHT22;671;48.972;9.276;2023-04-01T04:42:46;9.70;1.00
1355;DHT22;671;48.972;9.276;2023-04-01T04:45:12;9.70;1.00
1355;DHT22;671;48.972;9.276;2023-04-01T04:47:39;9.80;1.00
1355;DHT22;671;48.972;9.276;2023-04-01T04:50:06;9.80;1.00
1355;DHT22;671;48.972;9.276;2023-04-01T04:52:33;9.80;1.00
1355;DHT22;671;48.972;9.276;2023-04-01T04:54:59;9.80;1.00
1355;DHT22;671;48.972;9.276;2023-04-01T04:57:26;9.80;1.00
1355;DHT22;671;48.972;9.276;2023-04-01T04:59:52;9.80;1.00
1355;DHT22;671;48.972;9.276;2023-04-01T05:02:18;9.70;1.00
1355;DHT22;671;48.972;9.276;2023-04-01T05:04:45;9.80;1.00
1355;DHT22;671;48.972;9.276;2023-04-01T05:07:11;9.80;1.00
1355;DHT22;671;48.972;9.276;2023-04-01T05:09:38;9.80;1.00
1355;DHT22;671;48.972;9.276;2023-04-01T05:12:04;9.80;1.00
1355;DHT22;671;48.972;9.276;2023-04-01T05:14:31;9.80;1.00
1355;DHT22;671;48.972;9.276;2023-04-01T05:16:57;9.80;1.00
1355;DHT22;671;48.972;9.276;2023-04-01T05:19:24;9.90;1.00
1355;DHT22;671;48.972;9.276;2023-04-01T05:21:50;9.90;1.00
1355;DHT22;671;48.972;9.276;2023-04-01T05:24:17;9.90;1.00
1355;DHT22;671;48.972;9.276;2023-04-01T05:26:43;9.90;1.00
1355;DHT22;671;48.972;9.276;2023-04-01T05:29:10;9.90;1.00
1355;DHT22;671;48.972;9.276;2023-04-01T05:31:36;10.00;1.00
1355;DHT22;671;48.972;9.276;2023-04-01T05:34:03;10.00;1.00
1355;DHT22;671;48.972;9.276;2023-04-01T05:36:29;10.00;1.00
1355;DHT22;671;48.972;9.276;2023-04-01T05:38:56;9.90;1.00
1355;DHT22;671;48.972;9.276;2023-04-01T05:41:22;9.90;1.00
1355;DHT22;671;48.972;9.276;2023-04-01T05:43:49;10.00;1.00
1355;DHT22;671;48.972;9.276;2023-04-01T05:46:16;10.00;1.00
1355;DHT22;671;48.972;9.276;2023-04-01T05:48:42;10.00;1.00
1355;DHT22;671;48.972;9.276;2023-04-01T05:51:15;10.00;1.00
1355;DHT22;671;48.972;9.276;2023-04-01T05:53:42;10.00;1.00
1355;DHT22;671;48.972;9.276;2023-04-01T05:56:08;10.00;1.00
1355;DHT22;671;48.972;9.276;2023-04-01T05:58:38;10.00;1.00
1355;DHT22;671;48.972;9.276;2023-04-01T06:01:10;10.00;1.00
1355;DHT22;671;48.972;9.276;2023-04-01T06:03:37;10.00;1.00
1355;DHT22;671;48.972;9.276;2023-04-01T06:06:03;10.00;1.00
1355;DHT22;671;48.972;9.276;2023-04-01T06:08:31;10.00;1.00
1355;DHT22;671;48.972;9.276;2023-04-01T06:11:01;10.00;1.00
1355;DHT22;671;48.972;9.276;2023-04-01T06:24:30;10.10;1.00
1355;DHT22;671;48.972;9.276;2023-04-01T06:27:36;10.20;1.00
1355;DHT22;671;48.972;9.276;2023-04-01T06:36:08;10.30;1.00
1355;DHT22;671;48.972;9.276;2023-04-01T06:49:54;10.60;99.90
1355;DHT22;671;48.972;9.276;2023-04-01T06:57:42;10.70;99.90
1355;DHT22;671;48.972;9.276;2023-04-01T07:05:39;10.70;99.90
1355;DHT22;671;48.972;9.276;2023-04-01T07:08:11;10.80;99.90
1355;DHT22;671;48.972;9.276;2023-04-01T07:10:53;10.80;99.90
1355;DHT22;671;48.972;9.276;2023-04-01T07:13:29;10.80;99.90
1355;DHT22;671;48.972;9.276;2023-04-01T07:18:48;10.90;99.90
1355;DHT22;671;48.972;9.276;2023-04-01T07:21:49;10.90;99.90
1355;DHT22;671;48.972;9.276;2023-04-01T07:24:34;11.00;99.90
1355;DHT22;671;48.972;9.276;2023-04-01T07:27:04;11.00;99.90
1355;DHT22;671;48.972;9.276;2023-04-01T07:29:31;11.00;99.90
1355;DHT22;671;48.972;9.276;2023-04-01T07:35:26;11.00;99.90
1355;DHT22;671;48.972;9.276;2023-04-01T07:49:17;11.10;99.90
1355;DHT22;671;48.972;9.276;2023-04-01T07:54:29;11.20;99.90
1355;DHT22;671;48.972;9.276;2023-04-01T07:59:53;11.30;99.90
1355;DHT22;671;48.972;9.276;2023-04-01T08:10:52;11.30;99.90
1355;DHT22;671;48.972;9.276;2023-04-01T08:13:35;11.30;98.50
1355;DHT22;671;48.972;9.276;2023-04-01T08:16:23;11.40;99.90
1355;DHT22;671;48.972;9.276;2023-04-01T08:19:20;11.40;99.90
1355;DHT22;671;48.972;9.276;2023-04-01T08:21:54;11.50;99.90
1355;DHT22;671;48.972;9.276;2023-04-01T08:26:59;11.50;99.90
1355;DHT22;671;48.972;9.276;2023-04-01T08:29:51;11.60;99.90
1355;DHT22;671;48.972;9.276;2023-04-01T08:32:34;11.60;99.90
1355;DHT22;671;48.972;9.276;2023-04-01T08:35:25;11.60;99.90
1355;DHT22;671;48.972;9.276;2023-04-01T08:37:55;11.60;1.00
1355;DHT22;671;48.972;9.276;2023-04-01T08:49:01;11.50;1.00
1355;DHT22;671;48.972;9.276;2023-04-01T08:54:37;11.40;1.00
1355;DHT22;671;48.972;9.276;2023-04-01T08:57:13;11.40;1.00
1355;DHT22;671;48.972;9.276;2023-04-01T09:00:10;11.30;1.00
1355;DHT22;671;48.972;9.276;2023-04-01T09:02:51;11.30;1.00
1355;DHT22;671;48.972;9.276;2023-04-01T09:05:38;11.30;1.00
1355;DHT22;671;48.972;9.276;2023-04-01T09:25:49;11.10;1.00
1355;DHT22;671;48.972;9.276;2023-04-01T09:28:20;11.10;1.00
1355;DHT22;671;48.972;9.276;2023-04-01T09:31:44;11.20;1.00
1355;DHT22;671;48.972;9.276;2023-04-01T09:37:04;11.30;1.00
1355;DHT22;671;48.972;9.276;2023-04-01T09:42:15;11.30;1.00
1355;DHT22;671;48.972;9.276;2023-04-01T09:44:58;11.30;1.00
1355;DHT22;671;48.972;9.276;2023-04-01T09:50:28;11.40;1.00
1355;DHT22;671;48.972;9.276;2023-04-01T10:15:34;11.60;1.00
1355;DHT22;671;48.972;9.276;2023-04-01T10:35:03;11.60;99.90
1355;DHT22;671;48.972;9.276;2023-04-01T10:37:50;11.50;99.90
1355;DHT22;671;48.972;9.276;2023-04-01T10:44:04;11.60;1.00
1355;DHT22;671;48.972;9.276;2023-04-01T10:52:43;11.60;1.00
1355;DHT22;671;48.972;9.276;2023-04-01T10:58:17;11.50;1.00
1355;DHT22;671;48.972;9.276;2023-04-01T11:18:29;11.60;1.00
1355;DHT22;671;48.972;9.276;2023-04-01T11:29:30;11.70;1.00
1355;DHT22;671;48.972;9.276;2023-04-01T11:35:01;11.70;1.00
1355;DHT22;671;48.972;9.276;2023-04-01T11:37:53;11.80;1.00
1355;DHT22;671;48.972;9.276;2023-04-01T11:45:42;11.90;1.00
1355;DHT22;671;48.972;9.276;2023-04-01T12:10:02;12.10;99.90
1355;DHT22;671;48.972;9.276;2023-04-01T12:15:25;12.00;99.90
1355;DHT22;671;48.972;9.276;2023-04-01T12:18:04;12.00;99.90
1355;DHT22;671;48.972;9.276;2023-04-01T12:20:50;12.10;99.90
1355;DHT22;671;48.972;9.276;2023-04-01T12:26:35;12.30;1.00
1355;DHT22;671;48.972;9.276;2023-04-01T12:43:05;12.10;99.90
1355;DHT22;671;48.972;9.276;2023-04-01T12:45:45;12.20;99.90
1355;DHT22;671;48.972;9.276;2023-04-01T13:05:09;12.20;99.90
1355;DHT22;671;48.972;9.276;2023-04-01T13:15:37;12.00;99.90
1355;DHT22;671;48.972;9.276;2023-04-01T13:29:14;11.80;1.00
1355;DHT22;671;48.972;9.276;2023-04-01T13:40:45;11.70;1.00
1355;DHT22;671;48.972;9.276;2023-04-01T13:46:22;11.60;1.00
1355;DHT22;671;48.972;9.276;2023-04-01T13:54:47;11.50;1.00
1355;DHT22;671;48.972;9.276;2023-04-01T13:57:48;11.40;1.00
1355;DHT22;671;48.972;9.276;2023-04-01T14:20:51;11.40;1.00
1355;DHT22;671;48.972;9.276;2023-04-01T14:23:29;11.40;1.00
1355;DHT22;671;48.972;9.276;2023-04-01T14:34:21;11.40;1.00
1355;DHT22;671;48.972;9.276;2023-04-01T14:36:57;11.30;1.00
1355;DHT22;671;48.972;9.276;2023-04-01T14:51:16;11.40;1.00
1355;DHT22;671;48.972;9.276;2023-04-01T14:53:52;11.40;1.00
1355;DHT22;671;48.972;9.276;2023-04-01T14:56:42;11.40;1.00
1355;DHT22;671;48.972;9.276;2023-04-01T14:59:29;11.50;1.00
1355;DHT22;671;48.972;9.276;2023-04-01T15:01:58;11.50;1.00
1355;DHT22;671;48.972;9.276;2023-04-01T15:07:29;11.50;1.00
1355;DHT22;671;48.972;9.276;2023-04-01T15:10:17;11.50;1.00
1355;DHT22;671;48.972;9.276;2023-04-01T15:21:21;11.60;1.00
1355;DHT22;671;48.972;9.276;2023-04-01T15:27:10;11.50;99.90
1355;DHT22;671;48.972;9.276;2023-04-01T15:41:14;11.50;99.90
1355;DHT22;671;48.972;9.276;2023-04-01T15:43:48;11.50;1.00
1355;DHT22;671;48.972;9.276;2023-04-01T16:05:55;11.40;1.00
1355;DHT22;671;48.972;9.276;2023-04-01T16:19:41;11.40;99.90
1355;DHT22;671;48.972;9.276;2023-04-01T16:22:16;11.30;99.90
1355;DHT22;671;48.972;9.276;2023-04-01T16:41:05;11.30;99.90
1355;DHT22;671;48.972;9.276;2023-04-01T16:54:17;11.30;99.90
1355;DHT22;671;48.972;9.276;2023-04-01T16:59:38;11.30;99.90
1355;DHT22;671;48.972;9.276;2023-04-01T17:04:39;11.30;99.90
1355;DHT22;671;48.972;9.276;2023-04-01T17:12:47;11.20;99.90
1355;DHT22;671;48.972;9.276;2023-04-01T17:26:49;11.20;99.90
1355;DHT22;671;48.972;9.276;2023-04-01T17:29:24;11.20;99.90
1355;DHT22;671;48.972;9.276;2023-04-01T17:32:04;11.20;99.90
1355;DHT22;671;48.972;9.276;2023-04-01T17:40:28;11.30;99.90
1355;DHT22;671;48.972;9.276;2023-04-01T17:43:04;11.30;1.00
1355;DHT22;671;48.972;9.276;2023-04-01T17:56:49;11.20;1.00
1355;DHT22;671;48.972;9.276;2023-04-01T18:02:20;11.10;99.90
1355;DHT22;671;48.972;9.276;2023-04-01T18:05:05;11.10;99.90
1355;DHT22;671;48.972;9.276;2023-04-01T18:07:52;11.10;99.90
1355;DHT22;671;48.972;9.276;2023-04-01T18:10:41;11.00;99.90
1355;DHT22;671;48.972;9.276;2023-04-01T18:16:11;11.00;99.90
1355;DHT22;671;48.972;9.276;2023-04-01T18:22:21;10.90;99.90
1355;DHT22;671;48.972;9.276;2023-04-01T18:25:01;10.90;99.90
1355;DHT22;671;48.972;9.276;2023-04-01T18:27:38;10.90;99.90
1355;DHT22;671;48.972;9.276;2023-04-01T18:30:21;10.80;99.90
1355;DHT22;671;48.972;9.276;2023-04-01T18:38:34;10.80;1.00
1355;DHT22;671;48.972;9.276;2023-04-01T18:49:30;10.80;1.00
1355;DHT22;671;48.972;9.276;2023-04-01T18:52:25;10.80;1.00
1355;DHT22;671;48.972;9.276;2023-04-01T18:55:33;10.80;1.00
1355;DHT22;671;48.972;9.276;2023-04-01T18:58:24;10.80;1.00
1355;DHT22;671;48.972;9.276;2023-04-01T19:01:16;10.80;99.90
1355;DHT22;671;48.972;9.276;2023-04-01T19:06:57;10.70;99.90
1355;DHT22;671;48.972;9.276;2023-04-01T19:09:46;10.70;1.00
1355;DHT22;671;48.972;9.276;2023-04-01T19:31:02;10.50;1.00
1355;DHT22;671;48.972;9.276;2023-04-01T19:34:00;10.50;1.00
1355;DHT22;671;48.972;9.276;2023-04-01T19:36:35;10.50;1.00
1355;DHT22;671;48.972;9.276;2023-04-01T19:47:58;10.40;1.00
1355;DHT22;671;48.972;9.276;2023-04-01T19:50:53;10.40;1.00
1355;DHT22;671;48.972;9.276;2023-04-01T19:56:19;10.30;1.00
1355;DHT22;671;48.972;9.276;2023-04-01T19:59:06;10.20;1.00
1355;DHT22;671;48.972;9.276;2023-04-01T20:04:50;10.20;1.00
1355;DHT22;671;48.972;9.276;2023-04-01T20:07:40;10.20;1.00
1355;DHT22;671;48.972;9.276;2023-04-01T20:10:21;10.30;1.00
1355;DHT22;671;48.972;9.276;2023-04-01T20:13:06;10.30;1.00
1355;DHT22;671;48.972;9.276;2023-04-01T20:15:41;10.40;1.00
1355;DHT22;671;48.972;9.276;2023-04-01T20:18:23;10.40;1.00
1355;DHT22;671;48.972;9.276;2023-04-01T20:21:06;10.40;1.00
1355;DHT22;671;48.972;9.276;2023-04-01T20:26:35;10.40;1.00
1355;DHT22;671;48.972;9.276;2023-04-01T20:31:57;10.40;1.00
1355;DHT22;671;48.972;9.276;2023-04-01T20:51:14;10.50;1.00
1355;DHT22;671;48.972;9.276;2023-04-01T20:53:59;10.50;1.00
1355;DHT22;671;48.972;9.276;2023-04-01T20:59:47;10.50;1.00
1355;DHT22;671;48.972;9.276;2023-04-01T21:11:14;10.50;1.00
1355;DHT22;671;48.972;9.276;2023-04-01T21:14:11;10.50;1.00
1355;DHT22;671;48.972;9.276;2023-04-01T21:19:22;10.60;1.00
1355;DHT22;671;48.972;9.276;2023-04-01T21:25:17;10.60;1.00
1355;DHT22;671;48.972;9.276;2023-04-01T21:30:47;10.60;1.00
1355;DHT22;671;48.972;9.276;2023-04-01T21:34:02;10.60;1.00
1355;DHT22;671;48.972;9.276;2023-04-01T21:45:37;10.60;1.00
1355;DHT22;671;48.972;9.276;2023-04-01T21:48:31;10.60;1.00
1355;DHT22;671;48.972;9.276;2023-04-01T21:57:29;10.60;1.00
1355;DHT22;671;48.972;9.276;2023-04-01T22:13:10;10.60;1.00
1355;DHT22;671;48.972;9.276;2023-04-01T22:18:46;10.60;1.00
1355;DHT22;671;48.972;9.276;2023-04-01T22:21:32;10.60;1.00
1355;DHT22;671;48.972;9.276;2023-04-01T22:32:42;10.60;1.00
1355;DHT22;671;48.972;9.276;2023-04-01T22:35:17;10.50;1.00
1355;DHT22;671;48.972;9.276;2023-04-01T22:40:59;10.50;1.00
1355;DHT22;671;48.972;9.276;2023-04-01T22:43:47;10.50;1.00
1355;DHT22;671;48.972;9.276;2023-04-01T22:49:15;10.60;1.00
1355;DHT22;671;48.972;9.276;2023-04-01T22:52:19;10.60;1.00
1355;DHT22;671;48.972;9.276;2023-04-01T22:54:58;10.60;1.00
1355;DHT22;671;48.972;9.276;2023-04-01T22:57:50;10.60;1.00
1355;DHT22;671;48.972;9.276;2023-04-01T23:03:40;10.60;1.00
1355;DHT22;671;48.972;9.276;2023-04-01T23:06:19;10.60;1.00
1355;DHT22;671;48.972;9.276;2023-04-01T23:08:57;10.60;1.00
1355;DHT22;671;48.972;9.276;2023-04-01T23:11:35;10.60;1.00
1355;DHT22;671;48.972;9.276;2023-04-01T23:22:57;10.70;1.00
1355;DHT22;671;48.972;9.276;2023-04-01T23:25:46;10.70;1.00
1355;DHT22;671;48.972;9.276;2023-04-01T23:33:32;10.70;1.00
1355;DHT22;671;48.972;9.276;2023-04-01T23:35:59;10.70;1.00
1355;DHT22;671;48.972;9.276;2023-04-01T23:38:38;10.70;1.00
1355;DHT22;671;48.972;9.276;2023-04-01T23:41:06;10.70;1.00
1355;DHT22;671;48.972;9.276;2023-04-01T23:43:41;10.60;1.00
1355;DHT22;671;48.972;9.276;2023-04-01T23:46:08;10.60;1.00
1355;DHT22;671;48.972;9.276;2023-04-01T23:48:44;10.60;1.00
1355;DHT22;671;48.972;9.276;2023-04-01T23:51:25;10.60;1.00
1355;DHT22;671;48.972;9.276;2023-04-01T23:54:10;10.50;1.00
1355;DHT22;671;48.972;9.276;2023-04-01T23:56:52;10.60;1.00
